Terminal Aerodrome Forecast
Issued by NWS

Home | Current Version | Previous Version | Text Only | Print | Product List | Glossary On
Versions: 1 2 3 4 5 6 7 8 9 10 11 12 13 14 15 16 17 18 19 20 21 22 23 24
000
FTUS45 KBOI 271934 AAA
TAFBKE
TAF AMD
KBKE 271934Z 2720/2818 31015G25KT P6SM VCSH SCT040 BKN070
      TEMPO 2720/2724 -SHRA
     FM280200 31010KT P6SM BKN060=

USA.gov is the U.S. government's official web portal to all federal, state and local government web resources and services.